sensor_id;sensor_type;location;lat;lon;timestamp;P1;durP1;ratioP1;P2;durP2;ratioP2
15665;SDS011;20725;51.196;3.510;2023-02-01T00:01:20;17.17;;;6.00;;
15665;SDS011;20725;51.196;3.510;2023-02-01T00:03:56;16.47;;;5.23;;
15665;SDS011;20725;51.196;3.510;2023-02-01T00:06:29;18.13;;;5.97;;
15665;SDS011;20725;51.196;3.510;2023-02-01T00:08:57;23.83;;;6.97;;
15665;SDS011;20725;51.196;3.510;2023-02-01T00:11:27;19.47;;;5.57;;
15665;SDS011;20725;51.196;3.510;2023-02-01T00:13:54;16.70;;;6.20;;
15665;SDS011;20725;51.196;3.510;2023-02-01T00:16:23;18.83;;;6.17;;
15665;SDS011;20725;51.196;3.510;2023-02-01T00:18:56;21.37;;;5.43;;
15665;SDS011;20725;51.196;3.510;2023-02-01T00:21:25;21.47;;;5.97;;
15665;SDS011;20725;51.196;3.510;2023-02-01T00:23:53;24.83;;;5.77;;
15665;SDS011;20725;51.196;3.510;2023-02-01T00:26:25;21.53;;;5.37;;
15665;SDS011;20725;51.196;3.510;2023-02-01T00:28:57;22.00;;;5.77;;
15665;SDS011;20725;51.196;3.510;2023-02-01T00:31:24;19.83;;;5.30;;
15665;SDS011;20725;51.196;3.510;2023-02-01T00:33:51;21.30;;;5.27;;
15665;SDS011;20725;51.196;3.510;2023-02-01T00:36:18;17.67;;;4.93;;
15665;SDS011;20725;51.196;3.510;2023-02-01T00:38:48;18.20;;;5.47;;
15665;SDS011;20725;51.196;3.510;2023-02-01T00:41:16;23.13;;;5.60;;
15665;SDS011;20725;51.196;3.510;2023-02-01T00:43:45;15.30;;;4.63;;
15665;SDS011;20725;51.196;3.510;2023-02-01T00:46:13;18.53;;;5.07;;
15665;SDS011;20725;51.196;3.510;2023-02-01T00:48:42;28.63;;;6.07;;
15665;SDS011;20725;51.196;3.510;2023-02-01T00:51:10;23.33;;;5.77;;
15665;SDS011;20725;51.196;3.510;2023-02-01T00:53:39;19.13;;;5.07;;
15665;SDS011;20725;51.196;3.510;2023-02-01T00:56:08;18.77;;;4.93;;
15665;SDS011;20725;51.196;3.510;2023-02-01T00:58:35;16.13;;;5.40;;
15665;SDS011;20725;51.196;3.510;2023-02-01T01:06:14;14.80;;;4.77;;
15665;SDS011;20725;51.196;3.510;2023-02-01T01:08:42;18.47;;;4.50;;
15665;SDS011;20725;51.196;3.510;2023-02-01T01:11:12;22.30;;;5.37;;
15665;SDS011;20725;51.196;3.510;2023-02-01T01:13:41;18.17;;;4.80;;
15665;SDS011;20725;51.196;3.510;2023-02-01T01:16:09;18.13;;;4.80;;
15665;SDS011;20725;51.196;3.510;2023-02-01T01:18:36;17.53;;;5.17;;
15665;SDS011;20725;51.196;3.510;2023-02-01T01:21:04;19.93;;;5.03;;
15665;SDS011;20725;51.196;3.510;2023-02-01T01:23:32;16.27;;;4.63;;
15665;SDS011;20725;51.196;3.510;2023-02-01T01:25:59;19.17;;;5.30;;
15665;SDS011;20725;51.196;3.510;2023-02-01T01:28:27;22.13;;;5.27;;
15665;SDS011;20725;51.196;3.510;2023-02-01T01:30:54;19.30;;;5.20;;
15665;SDS011;20725;51.196;3.510;2023-02-01T01:33:21;22.70;;;5.47;;
15665;SDS011;20725;51.196;3.510;2023-02-01T01:35:47;17.60;;;5.10;;
15665;SDS011;20725;51.196;3.510;2023-02-01T01:38:14;20.60;;;5.63;;
15665;SDS011;20725;51.196;3.510;2023-02-01T01:40:44;18.27;;;5.23;;
15665;SDS011;20725;51.196;3.510;2023-02-01T01:43:12;22.17;;;5.93;;
15665;SDS011;20725;51.196;3.510;2023-02-01T01:45:42;21.13;;;4.93;;
15665;SDS011;20725;51.196;3.510;2023-02-01T01:48:11;14.40;;;5.30;;
15665;SDS011;20725;51.196;3.510;2023-02-01T01:50:42;23.47;;;5.40;;
15665;SDS011;20725;51.196;3.510;2023-02-01T01:53:14;14.87;;;4.37;;
15665;SDS011;20725;51.196;3.510;2023-02-01T01:55:44;15.93;;;5.00;;
15665;SDS011;20725;51.196;3.510;2023-02-01T01:58:15;13.77;;;4.87;;
15665;SDS011;20725;51.196;3.510;2023-02-01T02:00:46;12.03;;;4.60;;
15665;SDS011;20725;51.196;3.510;2023-02-01T02:03:14;15.80;;;4.77;;
15665;SDS011;20725;51.196;3.510;2023-02-01T02:05:44;20.20;;;5.53;;
15665;SDS011;20725;51.196;3.510;2023-02-01T02:08:13;18.80;;;4.93;;
15665;SDS011;20725;51.196;3.510;2023-02-01T02:10:40;25.43;;;5.40;;
15665;SDS011;20725;51.196;3.510;2023-02-01T02:13:26;11.97;;;4.03;;
15665;SDS011;20725;51.196;3.510;2023-02-01T02:15:59;17.67;;;5.43;;
15665;SDS011;20725;51.196;3.510;2023-02-01T02:18:38;15.90;;;4.47;;
15665;SDS011;20725;51.196;3.510;2023-02-01T02:21:15;19.33;;;5.50;;
15665;SDS011;20725;51.196;3.510;2023-02-01T02:23:55;19.23;;;5.53;;
15665;SDS011;20725;51.196;3.510;2023-02-01T02:27:02;17.53;;;5.17;;
15665;SDS011;20725;51.196;3.510;2023-02-01T02:35:55;24.43;;;4.90;;
15665;SDS011;20725;51.196;3.510;2023-02-01T02:38:28;26.57;;;6.63;;
15665;SDS011;20725;51.196;3.510;2023-02-01T02:41:00;25.17;;;5.73;;
15665;SDS011;20725;51.196;3.510;2023-02-01T02:43:35;22.57;;;5.90;;
15665;SDS011;20725;51.196;3.510;2023-02-01T02:46:28;19.03;;;5.53;;
15665;SDS011;20725;51.196;3.510;2023-02-01T02:49:18;19.90;;;4.93;;
15665;SDS011;20725;51.196;3.510;2023-02-01T02:51:50;18.10;;;4.90;;
15665;SDS011;20725;51.196;3.510;2023-02-01T02:54:37;23.60;;;4.47;;
15665;SDS011;20725;51.196;3.510;2023-02-01T02:57:18;25.93;;;5.83;;
15665;SDS011;20725;51.196;3.510;2023-02-01T03:00:05;22.13;;;6.07;;
15665;SDS011;20725;51.196;3.510;2023-02-01T03:02:53;19.43;;;5.03;;
15665;SDS011;20725;51.196;3.510;2023-02-01T03:05:39;29.10;;;6.07;;
15665;SDS011;20725;51.196;3.510;2023-02-01T03:08:12;17.13;;;5.37;;
15665;SDS011;20725;51.196;3.510;2023-02-01T03:10:50;19.40;;;5.27;;
15665;SDS011;20725;51.196;3.510;2023-02-01T03:13:26;22.50;;;5.63;;
15665;SDS011;20725;51.196;3.510;2023-02-01T03:15:59;35.13;;;6.27;;
15665;SDS011;20725;51.196;3.510;2023-02-01T03:18:31;28.00;;;6.03;;
15665;SDS011;20725;51.196;3.510;2023-02-01T03:21:04;23.83;;;5.47;;
15665;SDS011;20725;51.196;3.510;2023-02-01T03:23:36;19.73;;;5.17;;
15665;SDS011;20725;51.196;3.510;2023-02-01T03:26:04;23.00;;;6.23;;
15665;SDS011;20725;51.196;3.510;2023-02-01T03:28:34;23.33;;;5.70;;
15665;SDS011;20725;51.196;3.510;2023-02-01T03:31:05;27.60;;;5.67;;
15665;SDS011;20725;51.196;3.510;2023-02-01T03:33:32;32.00;;;6.23;;
15665;SDS011;20725;51.196;3.510;2023-02-01T03:36:01;20.53;;;6.03;;
15665;SDS011;20725;51.196;3.510;2023-02-01T03:38:43;18.47;;;5.60;;
15665;SDS011;20725;51.196;3.510;2023-02-01T03:41:18;18.10;;;5.10;;
15665;SDS011;20725;51.196;3.510;2023-02-01T03:43:51;20.67;;;5.80;;
15665;SDS011;20725;51.196;3.510;2023-02-01T03:46:23;25.77;;;5.23;;
15665;SDS011;20725;51.196;3.510;2023-02-01T03:48:58;29.23;;;6.23;;
15665;SDS011;20725;51.196;3.510;2023-02-01T03:51:27;25.60;;;6.10;;
15665;SDS011;20725;51.196;3.510;2023-02-01T03:53:57;19.43;;;5.17;;
15665;SDS011;20725;51.196;3.510;2023-02-01T03:56:27;21.27;;;6.30;;
15665;SDS011;20725;51.196;3.510;2023-02-01T03:58:57;18.90;;;5.03;;
15665;SDS011;20725;51.196;3.510;2023-02-01T04:01:25;19.03;;;5.30;;
15665;SDS011;20725;51.196;3.510;2023-02-01T04:03:53;23.67;;;6.00;;
15665;SDS011;20725;51.196;3.510;2023-02-01T04:06:20;22.53;;;5.80;;
15665;SDS011;20725;51.196;3.510;2023-02-01T04:08:47;25.77;;;6.33;;
15665;SDS011;20725;51.196;3.510;2023-02-01T04:11:16;20.53;;;5.60;;
15665;SDS011;20725;51.196;3.510;2023-02-01T04:13:43;25.70;;;6.17;;
15665;SDS011;20725;51.196;3.510;2023-02-01T04:16:10;19.03;;;5.37;;
15665;SDS011;20725;51.196;3.510;2023-02-01T04:18:37;19.47;;;5.53;;
15665;SDS011;20725;51.196;3.510;2023-02-01T04:21:04;25.73;;;5.00;;
15665;SDS011;20725;51.196;3.510;2023-02-01T04:23:31;22.53;;;5.73;;
15665;SDS011;20725;51.196;3.510;2023-02-01T04:26:01;34.30;;;6.97;;
15665;SDS011;20725;51.196;3.510;2023-02-01T04:28:31;22.90;;;5.60;;
15665;SDS011;20725;51.196;3.510;2023-02-01T04:30:58;22.00;;;5.27;;
15665;SDS011;20725;51.196;3.510;2023-02-01T04:33:25;22.80;;;5.30;;
15665;SDS011;20725;51.196;3.510;2023-02-01T04:35:52;27.33;;;6.23;;
15665;SDS011;20725;51.196;3.510;2023-02-01T04:38:19;25.10;;;5.63;;
15665;SDS011;20725;51.196;3.510;2023-02-01T04:40:46;16.20;;;5.03;;
15665;SDS011;20725;51.196;3.510;2023-02-01T04:43:14;21.70;;;4.93;;
15665;SDS011;20725;51.196;3.510;2023-02-01T04:45:45;25.23;;;6.77;;
15665;SDS011;20725;51.196;3.510;2023-02-01T04:48:13;20.67;;;5.63;;
15665;SDS011;20725;51.196;3.510;2023-02-01T04:50:40;23.87;;;4.77;;
15665;SDS011;20725;51.196;3.510;2023-02-01T04:53:07;28.87;;;5.80;;
15665;SDS011;20725;51.196;3.510;2023-02-01T04:55:34;27.20;;;5.70;;
15665;SDS011;20725;51.196;3.510;2023-02-01T04:58:01;28.30;;;5.60;;
15665;SDS011;20725;51.196;3.510;2023-02-01T05:00:28;17.77;;;5.43;;
15665;SDS011;20725;51.196;3.510;2023-02-01T05:02:56;13.80;;;4.60;;
15665;SDS011;20725;51.196;3.510;2023-02-01T05:05:23;17.53;;;5.73;;
15665;SDS011;20725;51.196;3.510;2023-02-01T05:07:50;18.83;;;5.30;;
15665;SDS011;20725;51.196;3.510;2023-02-01T05:10:17;22.10;;;5.63;;
15665;SDS011;20725;51.196;3.510;2023-02-01T05:12:44;20.60;;;5.23;;
15665;SDS011;20725;51.196;3.510;2023-02-01T05:15:29;23.60;;;5.13;;
15665;SDS011;20725;51.196;3.510;2023-02-01T05:17:57;14.43;;;4.97;;
15665;SDS011;20725;51.196;3.510;2023-02-01T05:20:24;19.40;;;4.77;;
15665;SDS011;20725;51.196;3.510;2023-02-01T05:22:51;21.50;;;5.87;;
15665;SDS011;20725;51.196;3.510;2023-02-01T05:25:18;21.07;;;5.83;;
15665;SDS011;20725;51.196;3.510;2023-02-01T05:27:45;15.80;;;4.53;;
15665;SDS011;20725;51.196;3.510;2023-02-01T05:30:12;16.50;;;5.10;;
15665;SDS011;20725;51.196;3.510;2023-02-01T05:32:39;15.43;;;4.90;;
15665;SDS011;20725;51.196;3.510;2023-02-01T05:35:08;17.23;;;4.77;;
15665;SDS011;20725;51.196;3.510;2023-02-01T05:37:35;19.23;;;4.63;;
15665;SDS011;20725;51.196;3.510;2023-02-01T05:40:02;16.80;;;4.53;;
15665;SDS011;20725;51.196;3.510;2023-02-01T05:42:30;21.00;;;5.23;;
15665;SDS011;20725;51.196;3.510;2023-02-01T05:44:56;13.60;;;4.47;;
15665;SDS011;20725;51.196;3.510;2023-02-01T05:47:23;16.10;;;4.60;;
15665;SDS011;20725;51.196;3.510;2023-02-01T05:49:50;12.27;;;4.07;;
15665;SDS011;20725;51.196;3.510;2023-02-01T05:52:18;22.50;;;6.00;;
15665;SDS011;20725;51.196;3.510;2023-02-01T05:54:45;25.07;;;5.53;;
15665;SDS011;20725;51.196;3.510;2023-02-01T05:57:13;21.07;;;5.00;;
15665;SDS011;20725;51.196;3.510;2023-02-01T05:59:40;16.70;;;5.20;;
15665;SDS011;20725;51.196;3.510;2023-02-01T06:02:09;14.47;;;4.90;;
15665;SDS011;20725;51.196;3.510;2023-02-01T06:04:36;19.93;;;4.70;;
15665;SDS011;20725;51.196;3.510;2023-02-01T06:07:04;20.47;;;4.97;;
15665;SDS011;20725;51.196;3.510;2023-02-01T06:09:34;12.93;;;4.40;;
15665;SDS011;20725;51.196;3.510;2023-02-01T06:12:01;18.57;;;5.00;;
15665;SDS011;20725;51.196;3.510;2023-02-01T06:14:27;18.50;;;5.33;;
15665;SDS011;20725;51.196;3.510;2023-02-01T06:16:55;15.20;;;6.07;;
15665;SDS011;20725;51.196;3.510;2023-02-01T06:19:22;11.80;;;4.57;;
15665;SDS011;20725;51.196;3.510;2023-02-01T06:21:49;21.87;;;4.60;;
15665;SDS011;20725;51.196;3.510;2023-02-01T06:24:16;19.73;;;4.67;;
15665;SDS011;20725;51.196;3.510;2023-02-01T06:26:44;15.40;;;5.83;;
15665;SDS011;20725;51.196;3.510;2023-02-01T06:29:11;23.67;;;5.17;;
15665;SDS011;20725;51.196;3.510;2023-02-01T06:31:38;13.53;;;5.50;;
15665;SDS011;20725;51.196;3.510;2023-02-01T06:34:07;22.53;;;5.43;;
15665;SDS011;20725;51.196;3.510;2023-02-01T06:36:34;24.63;;;5.70;;
15665;SDS011;20725;51.196;3.510;2023-02-01T06:39:01;20.60;;;5.23;;
15665;SDS011;20725;51.196;3.510;2023-02-01T06:41:28;21.97;;;6.03;;
15665;SDS011;20725;51.196;3.510;2023-02-01T06:43:57;21.83;;;5.23;;
15665;SDS011;20725;51.196;3.510;2023-02-01T06:46:24;17.83;;;5.07;;
15665;SDS011;20725;51.196;3.510;2023-02-01T06:48:51;27.07;;;6.13;;
15665;SDS011;20725;51.196;3.510;2023-02-01T06:51:20;22.40;;;5.17;;
15665;SDS011;20725;51.196;3.510;2023-02-01T06:53:48;17.03;;;4.97;;
15665;SDS011;20725;51.196;3.510;2023-02-01T06:56:15;17.47;;;4.40;;
15665;SDS011;20725;51.196;3.510;2023-02-01T06:58:42;20.80;;;5.37;;
15665;SDS011;20725;51.196;3.510;2023-02-01T07:01:10;23.00;;;4.90;;
15665;SDS011;20725;51.196;3.510;2023-02-01T07:03:37;19.33;;;5.33;;
15665;SDS011;20725;51.196;3.510;2023-02-01T07:06:06;17.53;;;5.17;;
15665;SDS011;20725;51.196;3.510;2023-02-01T07:08:34;22.07;;;5.20;;
15665;SDS011;20725;51.196;3.510;2023-02-01T07:11:02;21.60;;;4.77;;
15665;SDS011;20725;51.196;3.510;2023-02-01T07:13:30;23.30;;;5.67;;
15665;SDS011;20725;51.196;3.510;2023-02-01T07:16:00;20.33;;;5.40;;
15665;SDS011;20725;51.196;3.510;2023-02-01T07:18:29;23.07;;;5.20;;
15665;SDS011;20725;51.196;3.510;2023-02-01T07:20:56;22.67;;;4.97;;
15665;SDS011;20725;51.196;3.510;2023-02-01T07:23:24;19.07;;;5.10;;
15665;SDS011;20725;51.196;3.510;2023-02-01T07:25:54;19.90;;;4.83;;
15665;SDS011;20725;51.196;3.510;2023-02-01T07:28:22;20.53;;;5.30;;
15665;SDS011;20725;51.196;3.510;2023-02-01T07:30:50;27.90;;;6.03;;
15665;SDS011;20725;51.196;3.510;2023-02-01T07:33:18;23.40;;;5.53;;
15665;SDS011;20725;51.196;3.510;2023-02-01T07:35:47;19.20;;;4.83;;
15665;SDS011;20725;51.196;3.510;2023-02-01T07:38:15;19.57;;;5.00;;
15665;SDS011;20725;51.196;3.510;2023-02-01T07:40:42;23.23;;;5.47;;
15665;SDS011;20725;51.196;3.510;2023-02-01T07:43:09;20.63;;;5.53;;
15665;SDS011;20725;51.196;3.510;2023-02-01T07:45:36;23.57;;;4.77;;
15665;SDS011;20725;51.196;3.510;2023-02-01T07:48:03;20.00;;;5.63;;
15665;SDS011;20725;51.196;3.510;2023-02-01T07:50:30;15.97;;;5.10;;
15665;SDS011;20725;51.196;3.510;2023-02-01T07:52:59;22.07;;;5.60;;
15665;SDS011;20725;51.196;3.510;2023-02-01T07:55:27;18.47;;;5.03;;
15665;SDS011;20725;51.196;3.510;2023-02-01T07:57:56;22.20;;;5.57;;
15665;SDS011;20725;51.196;3.510;2023-02-01T08:00:23;20.47;;;5.67;;
15665;SDS011;20725;51.196;3.510;2023-02-01T08:03:08;21.73;;;4.93;;
15665;SDS011;20725;51.196;3.510;2023-02-01T08:05:35;20.90;;;5.80;;
15665;SDS011;20725;51.196;3.510;2023-02-01T08:08:04;20.70;;;5.90;;
15665;SDS011;20725;51.196;3.510;2023-02-01T08:10:32;20.57;;;5.27;;
15665;SDS011;20725;51.196;3.510;2023-02-01T08:13:00;27.30;;;5.13;;
15665;SDS011;20725;51.196;3.510;2023-02-01T08:15:30;25.60;;;5.93;;
15665;SDS011;20725;51.196;3.510;2023-02-01T08:17:57;19.13;;;5.03;;
15665;SDS011;20725;51.196;3.510;2023-02-01T08:20:24;18.87;;;5.60;;
15665;SDS011;20725;51.196;3.510;2023-02-01T08:22:52;14.37;;;4.93;;
15665;SDS011;20725;51.196;3.510;2023-02-01T08:25:20;20.17;;;5.00;;
15665;SDS011;20725;51.196;3.510;2023-02-01T08:27:48;20.97;;;5.27;;
15665;SDS011;20725;51.196;3.510;2023-02-01T08:30:16;22.60;;;6.87;;
15665;SDS011;20725;51.196;3.510;2023-02-01T08:32:43;21.20;;;5.43;;
15665;SDS011;20725;51.196;3.510;2023-02-01T08:35:10;22.07;;;6.10;;
15665;SDS011;20725;51.196;3.510;2023-02-01T08:37:37;16.23;;;4.70;;
15665;SDS011;20725;51.196;3.510;2023-02-01T08:40:04;18.73;;;5.27;;
15665;SDS011;20725;51.196;3.510;2023-02-01T08:42:33;17.67;;;5.10;;
15665;SDS011;20725;51.196;3.510;2023-02-01T08:45:19;21.17;;;5.07;;
15665;SDS011;20725;51.196;3.510;2023-02-01T08:47:48;22.53;;;5.50;;
15665;SDS011;20725;51.196;3.510;2023-02-01T08:50:16;18.27;;;5.57;;
15665;SDS011;20725;51.196;3.510;2023-02-01T08:52:43;22.07;;;5.20;;
15665;SDS011;20725;51.196;3.510;2023-02-01T08:55:10;25.40;;;5.60;;
15665;SDS011;20725;51.196;3.510;2023-02-01T08:57:39;19.57;;;4.97;;
15665;SDS011;20725;51.196;3.510;2023-02-01T09:00:08;17.10;;;5.23;;
15665;SDS011;20725;51.196;3.510;2023-02-01T09:02:37;18.67;;;5.33;;
15665;SDS011;20725;51.196;3.510;2023-02-01T09:05:04;19.47;;;4.87;;
15665;SDS011;20725;51.196;3.510;2023-02-01T09:07:31;14.83;;;4.80;;
15665;SDS011;20725;51.196;3.510;2023-02-01T09:09:58;19.43;;;4.47;;
15665;SDS011;20725;51.196;3.510;2023-02-01T09:12:26;17.90;;;4.50;;
15665;SDS011;20725;51.196;3.510;2023-02-01T09:14:54;16.07;;;5.00;;
15665;SDS011;20725;51.196;3.510;2023-02-01T09:17:22;18.67;;;4.70;;
15665;SDS011;20725;51.196;3.510;2023-02-01T09:19:49;16.67;;;5.00;;
15665;SDS011;20725;51.196;3.510;2023-02-01T09:22:16;18.60;;;4.80;;
15665;SDS011;20725;51.196;3.510;2023-02-01T09:24:42;14.83;;;5.00;;
15665;SDS011;20725;51.196;3.510;2023-02-01T09:27:10;19.00;;;4.57;;
15665;SDS011;20725;51.196;3.510;2023-02-01T09:29:36;10.60;;;3.97;;
15665;SDS011;20725;51.196;3.510;2023-02-01T09:32:05;15.07;;;4.73;;
15665;SDS011;20725;51.196;3.510;2023-02-01T09:34:32;16.50;;;4.50;;
15665;SDS011;20725;51.196;3.510;2023-02-01T09:36:59;13.90;;;4.43;;
15665;SDS011;20725;51.196;3.510;2023-02-01T09:39:27;13.50;;;3.83;;
15665;SDS011;20725;51.196;3.510;2023-02-01T09:41:57;15.17;;;4.50;;
15665;SDS011;20725;51.196;3.510;2023-02-01T09:44:51;17.30;;;4.20;;
15665;SDS011;20725;51.196;3.510;2023-02-01T09:47:27;12.43;;;4.30;;
15665;SDS011;20725;51.196;3.510;2023-02-01T09:49:56;10.07;;;4.00;;
15665;SDS011;20725;51.196;3.510;2023-02-01T09:52:28;13.17;;;4.63;;
15665;SDS011;20725;51.196;3.510;2023-02-01T09:55:01;15.30;;;4.63;;
15665;SDS011;20725;51.196;3.510;2023-02-01T09:57:40;15.07;;;3.60;;
15665;SDS011;20725;51.196;3.510;2023-02-01T10:00:14;17.40;;;4.27;;
15665;SDS011;20725;51.196;3.510;2023-02-01T10:02:45;14.37;;;3.70;;
15665;SDS011;20725;51.196;3.510;2023-02-01T10:05:12;12.33;;;4.30;;
15665;SDS011;20725;51.196;3.510;2023-02-01T10:07:43;10.40;;;3.60;;
15665;SDS011;20725;51.196;3.510;2023-02-01T10:10:18;15.33;;;4.30;;
15665;SDS011;20725;51.196;3.510;2023-02-01T10:15:58;12.13;;;3.90;;
15665;SDS011;20725;51.196;3.510;2023-02-01T10:18:42;12.40;;;4.83;;
15665;SDS011;20725;51.196;3.510;2023-02-01T10:21:24;14.37;;;4.47;;
15665;SDS011;20725;51.196;3.510;2023-02-01T10:24:17;12.37;;;4.07;;
15665;SDS011;20725;51.196;3.510;2023-02-01T10:26:55;13.37;;;4.20;;
15665;SDS011;20725;51.196;3.510;2023-02-01T10:29:29;14.47;;;4.27;;
15665;SDS011;20725;51.196;3.510;2023-02-01T10:32:01;14.33;;;4.10;;
15665;SDS011;20725;51.196;3.510;2023-02-01T10:34:31;10.97;;;4.27;;
15665;SDS011;20725;51.196;3.510;2023-02-01T10:37:00;11.37;;;3.80;;
15665;SDS011;20725;51.196;3.510;2023-02-01T10:39:34;13.20;;;3.83;;
15665;SDS011;20725;51.196;3.510;2023-02-01T10:42:02;9.77;;;3.60;;
15665;SDS011;20725;51.196;3.510;2023-02-01T10:44:30;14.63;;;4.10;;
15665;SDS011;20725;51.196;3.510;2023-02-01T10:47:00;13.90;;;3.40;;
15665;SDS011;20725;51.196;3.510;2023-02-01T10:49:29;11.37;;;3.93;;
15665;SDS011;20725;51.196;3.510;2023-02-01T10:52:05;14.00;;;4.10;;
15665;SDS011;20725;51.196;3.510;2023-02-01T10:54:38;12.43;;;3.23;;
15665;SDS011;20725;51.196;3.510;2023-02-01T10:57:07;16.63;;;4.03;;
15665;SDS011;20725;51.196;3.510;2023-02-01T10:59:35;13.07;;;3.60;;
15665;SDS011;20725;51.196;3.510;2023-02-01T11:02:05;10.40;;;3.67;;
15665;SDS011;20725;51.196;3.510;2023-02-01T11:04:47;12.57;;;4.07;;
15665;SDS011;20725;51.196;3.510;2023-02-01T11:07:16;12.40;;;3.97;;
15665;SDS011;20725;51.196;3.510;2023-02-01T11:09:50;11.60;;;3.43;;
15665;SDS011;20725;51.196;3.510;2023-02-01T11:12:24;17.70;;;4.07;;
15665;SDS011;20725;51.196;3.510;2023-02-01T11:14:56;13.57;;;3.70;;
15665;SDS011;20725;51.196;3.510;2023-02-01T11:17:28;9.73;;;3.33;;
15665;SDS011;20725;51.196;3.510;2023-02-01T11:20:04;12.60;;;3.47;;
15665;SDS011;20725;51.196;3.510;2023-02-01T11:22:38;8.77;;;3.43;;
15665;SDS011;20725;51.196;3.510;2023-02-01T11:25:13;12.50;;;3.53;;
15665;SDS011;20725;51.196;3.510;2023-02-01T11:27:43;10.47;;;3.33;;
15665;SDS011;20725;51.196;3.510;2023-02-01T11:30:14;12.33;;;4.17;;
15665;SDS011;20725;51.196;3.510;2023-02-01T11:32:44;11.27;;;3.63;;
15665;SDS011;20725;51.196;3.510;2023-02-01T11:35:15;12.53;;;3.43;;
15665;SDS011;20725;51.196;3.510;2023-02-01T11:37:48;11.97;;;3.67;;
15665;SDS011;20725;51.196;3.510;2023-02-01T11:40:25;9.73;;;3.40;;
15665;SDS011;20725;51.196;3.510;2023-02-01T11:42:54;11.93;;;3.90;;
15665;SDS011;20725;51.196;3.510;2023-02-01T11:45:25;13.27;;;3.83;;
15665;SDS011;20725;51.196;3.510;2023-02-01T11:47:54;12.53;;;3.90;;
15665;SDS011;20725;51.196;3.510;2023-02-01T11:50:25;10.50;;;3.50;;
15665;SDS011;20725;51.196;3.510;2023-02-01T11:53:05;11.30;;;4.13;;
15665;SDS011;20725;51.196;3.510;2023-02-01T11:55:50;10.77;;;3.43;;
15665;SDS011;20725;51.196;3.510;2023-02-01T11:58:31;12.17;;;3.93;;
15665;SDS011;20725;51.196;3.510;2023-02-01T12:01:15;10.50;;;3.73;;
15665;SDS011;20725;51.196;3.510;2023-02-01T12:06:53;12.60;;;3.73;;
15665;SDS011;20725;51.196;3.510;2023-02-01T12:09:29;9.17;;;3.20;;
15665;SDS011;20725;51.196;3.510;2023-02-01T12:12:08;9.80;;;3.83;;
15665;SDS011;20725;51.196;3.510;2023-02-01T12:17:56;10.50;;;3.77;;
15665;SDS011;20725;51.196;3.510;2023-02-01T12:20:49;9.70;;;3.43;;
15665;SDS011;20725;51.196;3.510;2023-02-01T12:23:32;10.03;;;3.20;;
15665;SDS011;20725;51.196;3.510;2023-02-01T12:26:20;12.50;;;3.70;;
15665;SDS011;20725;51.196;3.510;2023-02-01T12:29:09;12.67;;;4.07;;
15665;SDS011;20725;51.196;3.510;2023-02-01T12:35:01;14.07;;;4.13;;
15665;SDS011;20725;51.196;3.510;2023-02-01T12:37:44;10.60;;;4.07;;
15665;SDS011;20725;51.196;3.510;2023-02-01T12:40:32;9.43;;;3.30;;
15665;SDS011;20725;51.196;3.510;2023-02-01T12:43:14;11.57;;;3.57;;
15665;SDS011;20725;51.196;3.510;2023-02-01T12:45:48;9.43;;;3.70;;
15665;SDS011;20725;51.196;3.510;2023-02-01T12:48:23;7.80;;;3.30;;
15665;SDS011;20725;51.196;3.510;2023-02-01T12:50:56;11.50;;;3.83;;
15665;SDS011;20725;51.196;3.510;2023-02-01T12:53:27;11.17;;;3.77;;
15665;SDS011;20725;51.196;3.510;2023-02-01T12:56:06;9.93;;;3.30;;
15665;SDS011;20725;51.196;3.510;2023-02-01T12:58:39;6.77;;;3.00;;
15665;SDS011;20725;51.196;3.510;2023-02-01T13:01:11;10.30;;;3.60;;
15665;SDS011;20725;51.196;3.510;2023-02-01T13:03:43;12.40;;;3.90;;
15665;SDS011;20725;51.196;3.510;2023-02-01T13:06:21;10.90;;;3.70;;
15665;SDS011;20725;51.196;3.510;2023-02-01T13:08:53;9.90;;;3.73;;
15665;SDS011;20725;51.196;3.510;2023-02-01T13:11:29;9.80;;;3.77;;
15665;SDS011;20725;51.196;3.510;2023-02-01T13:14:00;13.27;;;3.93;;
15665;SDS011;20725;51.196;3.510;2023-02-01T13:16:30;11.03;;;3.80;;
15665;SDS011;20725;51.196;3.510;2023-02-01T13:19:09;11.60;;;4.00;;
15665;SDS011;20725;51.196;3.510;2023-02-01T13:21:43;15.97;;;4.90;;
15665;SDS011;20725;51.196;3.510;2023-02-01T13:24:17;13.17;;;3.93;;
15665;SDS011;20725;51.196;3.510;2023-02-01T13:26:55;10.90;;;4.40;;
15665;SDS011;20725;51.196;3.510;2023-02-01T13:29:22;12.37;;;4.40;;
15665;SDS011;20725;51.196;3.510;2023-02-01T13:32:00;12.00;;;4.10;;
15665;SDS011;20725;51.196;3.510;2023-02-01T13:35:10;12.57;;;4.17;;
15665;SDS011;20725;51.196;3.510;2023-02-01T13:38:07;13.13;;;3.97;;
15665;SDS011;20725;51.196;3.510;2023-02-01T13:40:59;11.00;;;4.00;;
15665;SDS011;20725;51.196;3.510;2023-02-01T13:43:38;15.03;;;4.63;;
15665;SDS011;20725;51.196;3.510;2023-02-01T13:46:07;14.17;;;4.50;;
15665;SDS011;20725;51.196;3.510;2023-02-01T13:48:38;13.47;;;4.30;;
15665;SDS011;20725;51.196;3.510;2023-02-01T13:51:19;15.63;;;4.13;;
15665;SDS011;20725;51.196;3.510;2023-02-01T13:53:59;14.57;;;4.00;;
15665;SDS011;20725;51.196;3.510;2023-02-01T13:56:26;17.13;;;4.87;;
15665;SDS011;20725;51.196;3.510;2023-02-01T13:58:54;14.77;;;4.40;;
15665;SDS011;20725;51.196;3.510;2023-02-01T14:01:31;13.67;;;4.00;;
15665;SDS011;20725;51.196;3.510;2023-02-01T14:04:02;15.57;;;4.43;;
15665;SDS011;20725;51.196;3.510;2023-02-01T14:06:38;15.40;;;4.67;;
15665;SDS011;20725;51.196;3.510;2023-02-01T14:09:14;16.33;;;4.87;;
15665;SDS011;20725;51.196;3.510;2023-02-01T14:11:45;14.93;;;5.43;;
15665;SDS011;20725;51.196;3.510;2023-02-01T14:23:19;14.57;;;4.97;;
15665;SDS011;20725;51.196;3.510;2023-02-01T14:25:59;20.50;;;5.40;;
15665;SDS011;20725;51.196;3.510;2023-02-01T14:28:29;16.17;;;5.03;;
15665;SDS011;20725;51.196;3.510;2023-02-01T14:30:58;16.33;;;4.93;;
15665;SDS011;20725;51.196;3.510;2023-02-01T14:33:26;19.43;;;4.93;;
15665;SDS011;20725;51.196;3.510;2023-02-01T14:36:00;15.13;;;5.40;;
15665;SDS011;20725;51.196;3.510;2023-02-01T14:38:30;24.77;;;5.50;;
15665;SDS011;20725;51.196;3.510;2023-02-01T14:41:10;17.57;;;4.93;;
15665;SDS011;20725;51.196;3.510;2023-02-01T14:43:49;26.13;;;5.30;;
15665;SDS011;20725;51.196;3.510;2023-02-01T14:46:18;17.67;;;5.43;;
15665;SDS011;20725;51.196;3.510;2023-02-01T14:48:45;19.40;;;5.67;;
15665;SDS011;20725;51.196;3.510;2023-02-01T14:51:14;16.90;;;4.50;;
15665;SDS011;20725;51.196;3.510;2023-02-01T14:53:43;21.27;;;5.17;;
15665;SDS011;20725;51.196;3.510;2023-02-01T14:56:12;16.27;;;4.93;;
15665;SDS011;20725;51.196;3.510;2023-02-01T14:58:47;21.70;;;5.70;;
15665;SDS011;20725;51.196;3.510;2023-02-01T15:01:22;24.23;;;5.40;;
15665;SDS011;20725;51.196;3.510;2023-02-01T15:03:52;19.97;;;4.50;;
15665;SDS011;20725;51.196;3.510;2023-02-01T15:06:24;19.33;;;5.30;;
15665;SDS011;20725;51.196;3.510;2023-02-01T15:08:54;23.87;;;5.57;;
15665;SDS011;20725;51.196;3.510;2023-02-01T15:11:25;19.97;;;5.13;;
15665;SDS011;20725;51.196;3.510;2023-02-01T15:13:52;18.83;;;5.73;;
15665;SDS011;20725;51.196;3.510;2023-02-01T15:16:23;23.33;;;5.90;;
15665;SDS011;20725;51.196;3.510;2023-02-01T15:19:06;17.90;;;5.10;;
15665;SDS011;20725;51.196;3.510;2023-02-01T15:21:41;22.00;;;5.43;;
15665;SDS011;20725;51.196;3.510;2023-02-01T15:24:13;24.40;;;6.13;;
15665;SDS011;20725;51.196;3.510;2023-02-01T15:26:44;18.17;;;5.07;;
15665;SDS011;20725;51.196;3.510;2023-02-01T15:29:12;19.97;;;5.50;;
15665;SDS011;20725;51.196;3.510;2023-02-01T15:31:41;22.70;;;6.13;;
15665;SDS011;20725;51.196;3.510;2023-02-01T15:34:09;24.33;;;5.80;;